createdAt,value
2024-03-26T00:01:48.874Z,98334.96
2024-03-26T00:04:20.186Z,98337.51
2024-03-26T00:06:51.593Z,98337.21
2024-03-26T00:09:23.075Z,98338.21
2024-03-26T00:11:54.527Z,98338.80
2024-03-26T00:14:25.824Z,98343.15
2024-03-26T00:16:57.167Z,98339.88
2024-03-26T00:19:28.982Z,98340.20
2024-03-26T00:21:58.902Z,98343.27
2024-03-26T00:24:30.286Z,98343.09
2024-03-26T00:27:01.623Z,98339.49
2024-03-26T00:29:32.955Z,98345.76
2024-03-26T00:32:04.459Z,98341.27
2024-03-26T00:34:36.007Z,98344.15
2024-03-26T00:37:07.371Z,98341.95
2024-03-26T00:39:38.704Z,98343.23
2024-03-26T00:42:10.003Z,98345.83
2024-03-26T00:44:41.324Z,98345.69
2024-03-26T00:47:12.617Z,98344.05
2024-03-26T00:49:43.957Z,98343.92
2024-03-26T00:52:15.301Z,98348.20
2024-03-26T00:54:47.823Z,98348.75
2024-03-26T00:57:19.179Z,98352.00
2024-03-26T00:59:50.594Z,98355.17
2024-03-26T01:02:22.294Z,98356.48
2024-03-26T01:04:53.876Z,98354.65
2024-03-26T01:07:25.175Z,98358.15
2024-03-26T01:09:56.524Z,98359.48
2024-03-26T01:12:27.820Z,98362.33
2024-03-26T01:14:59.279Z,98365.42
2024-03-26T01:17:30.697Z,98368.42
2024-03-26T01:20:02.394Z,98370.73
2024-03-26T01:22:33.747Z,98373.77
2024-03-26T01:25:07.014Z,98375.81
2024-03-26T01:27:38.371Z,98376.79
2024-03-26T01:30:12.567Z,98377.34
2024-03-26T01:32:44.054Z,98378.80
2024-03-26T01:35:15.606Z,98377.48
2024-03-26T01:37:48.377Z,98380.47
2024-03-26T01:40:19.745Z,98379.90
2024-03-26T01:42:51.812Z,98384.17
2024-03-26T01:45:23.489Z,98378.21
2024-03-26T01:47:55.035Z,98380.41
2024-03-26T01:50:26.656Z,98383.23
2024-03-26T01:52:58.052Z,98379.48
2024-03-26T01:55:30.154Z,98377.64
2024-03-26T01:58:03.476Z,98381.04
2024-03-26T02:00:35.322Z,98384.33
2024-03-26T02:03:05.265Z,98386.74
2024-03-26T02:05:37.377Z,98383.70
2024-03-26T02:08:11.192Z,98385.77
2024-03-26T02:10:42.799Z,98382.73
2024-03-26T02:13:14.116Z,98387.45
2024-03-26T02:15:45.521Z,98387.50
2024-03-26T02:18:16.896Z,98395.08
2024-03-26T02:20:48.977Z,98397.46
2024-03-26T02:23:24.075Z,98397.99
2024-03-26T02:25:55.378Z,98399.89
2024-03-26T02:28:26.793Z,98401.77
2024-03-26T02:30:58.160Z,98407.33
2024-03-26T02:33:29.848Z,98411.62
2024-03-26T02:36:01.254Z,98411.16
2024-03-26T02:38:32.653Z,98410.69
2024-03-26T02:41:04.619Z,98413.09
2024-03-26T02:43:38.623Z,98414.70
2024-03-26T02:46:09.975Z,98413.21
2024-03-26T02:48:41.313Z,98417.48
2024-03-26T02:51:12.679Z,98420.52
2024-03-26T02:53:44.031Z,98418.60
2024-03-26T02:56:15.416Z,98419.42
2024-03-26T02:58:46.697Z,98423.79
2024-03-26T03:01:19.351Z,98423.95
2024-03-26T03:04:18.527Z,98425.14
2024-03-26T03:06:49.928Z,98426.88
2024-03-26T03:09:21.272Z,98423.40
2024-03-26T03:11:52.581Z,98422.45
2024-03-26T03:14:24.026Z,98424.98
2024-03-26T03:16:55.448Z,98420.27
2024-03-26T03:19:26.785Z,98419.37
2024-03-26T03:21:59.190Z,98418.16
2024-03-26T03:24:30.510Z,98417.41
2024-03-26T03:27:01.863Z,98412.58
2024-03-26T03:29:33.240Z,98415.13
2024-03-26T03:32:04.795Z,98418.77
2024-03-26T03:34:36.199Z,98414.89
2024-03-26T03:37:07.548Z,98414.37
2024-03-26T03:39:38.911Z,98414.08
2024-03-26T03:42:10.294Z,98410.92
2024-03-26T03:44:42.008Z,98408.05
2024-03-26T03:47:13.356Z,98407.75
2024-03-26T03:49:45.083Z,98407.10
2024-03-26T03:52:16.753Z,98404.14
2024-03-26T03:54:48.045Z,98404.92
2024-03-26T03:57:19.609Z,98398.91
2024-03-26T03:59:51.415Z,98397.94
2024-03-26T04:02:22.747Z,98393.13
2024-03-26T04:04:54.079Z,98397.00
2024-03-26T04:07:25.554Z,98399.95
2024-03-26T04:09:57.277Z,98403.38
2024-03-26T04:12:29.449Z,98404.67
2024-03-26T04:15:00.783Z,98407.40
2024-03-26T04:17:32.134Z,98410.41
2024-03-26T04:20:03.531Z,98418.80
2024-03-26T04:22:35.270Z,98421.89
2024-03-26T04:25:07.430Z,98426.56
2024-03-26T04:27:39.065Z,98424.86
2024-03-26T04:30:11.776Z,98429.23
2024-03-26T04:32:43.280Z,98424.14
2024-03-26T04:35:14.682Z,98423.09
2024-03-26T04:37:45.990Z,98430.48
2024-03-26T04:40:18.682Z,98428.90
2024-03-26T04:42:50.002Z,98424.35
2024-03-26T04:45:21.364Z,98427.28
2024-03-26T04:47:52.747Z,98432.29
2024-03-26T04:50:24.088Z,98431.58
2024-03-26T04:52:55.993Z,98434.23
2024-03-26T04:55:26.526Z,98441.46
2024-03-26T04:57:58.080Z,98440.91
2024-03-26T05:00:29.653Z,98439.98
2024-03-26T05:03:03.032Z,98441.30
2024-03-26T05:05:34.816Z,98441.50
2024-03-26T05:08:05.119Z,98440.66
2024-03-26T05:10:36.674Z,98440.65
2024-03-26T05:13:08.234Z,98440.50
2024-03-26T05:15:39.784Z,98441.83
2024-03-26T05:18:11.541Z,98440.69
2024-03-26T05:20:43.097Z,98442.09
2024-03-26T05:23:15.723Z,98442.98
2024-03-26T05:25:47.231Z,98443.88
2024-03-26T05:28:18.795Z,98443.41
2024-03-26T05:30:51.163Z,98447.05
2024-03-26T05:33:22.717Z,98443.69
2024-03-26T05:35:54.299Z,98443.18
2024-03-26T05:38:25.825Z,98448.89
2024-03-26T05:40:58.209Z,98457.81
2024-03-26T05:43:29.759Z,98453.83
2024-03-26T05:46:01.220Z,98455.34
2024-03-26T05:48:32.651Z,98456.61
2024-03-26T05:51:04.057Z,98455.63
2024-03-26T05:53:35.448Z,98450.09
2024-03-26T05:56:09.224Z,98449.13
2024-03-26T05:58:41.965Z,98447.40
2024-03-26T06:01:13.336Z,98449.01
2024-03-26T06:03:45.177Z,98447.66
2024-03-26T06:06:15.243Z,98453.36
2024-03-26T06:08:46.641Z,98453.04
2024-03-26T06:11:18.016Z,98451.81
2024-03-26T06:13:49.393Z,98452.68
2024-03-26T06:16:21.537Z,98454.76
2024-03-26T06:18:52.960Z,98460.09
2024-03-26T06:21:24.296Z,98458.20
2024-03-26T06:23:55.976Z,98461.06
2024-03-26T06:26:27.415Z,98467.95
2024-03-26T06:28:58.913Z,98473.78
2024-03-26T06:31:30.227Z,98477.83
2024-03-26T06:34:01.589Z,98482.73
2024-03-26T06:36:32.915Z,98483.23
2024-03-26T06:39:05.318Z,98481.14
2024-03-26T06:41:36.869Z,98479.86
2024-03-26T06:44:08.346Z,98482.91
2024-03-26T06:46:40.572Z,98478.77
2024-03-26T06:49:14.233Z,98479.84
2024-03-26T06:51:46.096Z,98476.58
2024-03-26T06:54:18.780Z,98472.38
2024-03-26T06:56:50.319Z,98472.80
2024-03-26T06:59:21.623Z,98467.23
2024-03-26T07:01:52.950Z,98470.70
2024-03-26T07:04:24.284Z,98466.75
2024-03-26T07:06:55.563Z,98464.85
2024-03-26T07:09:27.127Z,98463.61
2024-03-26T07:11:58.460Z,98467.00
2024-03-26T07:14:29.850Z,98467.50
2024-03-26T07:17:01.146Z,98465.89
2024-03-26T07:19:32.535Z,98466.97
2024-03-26T07:22:04.854Z,98465.67
2024-03-26T07:24:36.992Z,98465.26
2024-03-26T07:27:08.343Z,98470.20
2024-03-26T07:29:40.323Z,98468.55
2024-03-26T07:32:11.656Z,98464.94
2024-03-26T07:34:44.002Z,98468.05
2024-03-26T07:37:16.529Z,98469.40
2024-03-26T07:39:48.314Z,98465.78
2024-03-26T07:42:19.591Z,98463.34
2024-03-26T07:44:51.835Z,98456.04
2024-03-26T07:47:23.462Z,98454.93
2024-03-26T07:49:53.400Z,98451.89
2024-03-26T07:52:24.876Z,98452.66
2024-03-26T07:54:56.319Z,98457.80
2024-03-26T07:57:27.645Z,98456.71
2024-03-26T07:59:58.983Z,98450.89
2024-03-26T08:02:30.551Z,98449.75
2024-03-26T08:05:01.792Z,98451.81
2024-03-26T08:07:33.307Z,98455.17
2024-03-26T08:10:05.002Z,98453.80
2024-03-26T08:12:34.838Z,98457.10
2024-03-26T08:15:08.315Z,98460.86
2024-03-26T08:17:41.870Z,98464.80
2024-03-26T08:20:15.150Z,98460.52
2024-03-26T08:22:46.670Z,98456.52
2024-03-26T08:25:18.709Z,98454.36
2024-03-26T08:27:49.998Z,98457.45
2024-03-26T08:30:21.601Z,98453.27
2024-03-26T08:32:54.246Z,98456.66
2024-03-26T08:35:25.708Z,98459.89
2024-03-26T08:37:57.017Z,98454.73
2024-03-26T08:40:28.331Z,98457.95
2024-03-26T08:42:59.691Z,98455.91
2024-03-26T08:45:31.016Z,98454.26
2024-03-26T08:48:02.448Z,98452.14
2024-03-26T08:50:33.863Z,98454.77
2024-03-26T08:53:06.008Z,98455.13
2024-03-26T08:55:37.558Z,98457.29
2024-03-26T08:58:09.531Z,98458.73
2024-03-26T09:00:41.492Z,98453.43
2024-03-26T09:03:11.614Z,98451.71
2024-03-26T09:05:43.172Z,98445.94
2024-03-26T09:08:13.296Z,98442.55
2024-03-26T09:10:44.847Z,98438.66
2024-03-26T09:13:14.968Z,98432.89
2024-03-26T09:15:46.727Z,98427.30
2024-03-26T09:18:18.289Z,98424.98
2024-03-26T09:20:48.409Z,98417.55
2024-03-26T09:23:19.963Z,98413.04
2024-03-26T09:25:51.734Z,98409.73
2024-03-26T09:28:23.273Z,98399.66
2024-03-26T09:30:53.401Z,98396.29
2024-03-26T09:33:25.368Z,98399.58
2024-03-26T09:35:56.921Z,98397.77
2024-03-26T09:38:39.645Z,98399.05
2024-03-26T09:41:18.578Z,98392.75
2024-03-26T09:43:50.976Z,98387.20
2024-03-26T09:46:23.890Z,98383.59
2024-03-26T09:48:56.552Z,98380.61
2024-03-26T09:51:29.124Z,98377.25
2024-03-26T09:54:01.861Z,98372.73
2024-03-26T09:56:33.325Z,98373.11
2024-03-26T09:59:03.456Z,98369.56
2024-03-26T10:01:37.867Z,98371.48
2024-03-26T10:04:10.759Z,98366.78
2024-03-26T10:06:43.074Z,98364.50
2024-03-26T10:09:16.634Z,98368.64
2024-03-26T10:11:49.412Z,98368.35
2024-03-26T10:14:22.213Z,98370.90
2024-03-26T10:16:53.959Z,98364.59
2024-03-26T10:19:26.132Z,98360.52
2024-03-26T10:21:57.695Z,98359.13
2024-03-26T10:24:29.043Z,98362.36
2024-03-26T10:26:59.606Z,98357.21
2024-03-26T10:29:31.228Z,98354.42
2024-03-26T10:32:02.749Z,98350.80
2024-03-26T10:34:37.956Z,98351.00
2024-03-26T10:37:11.168Z,98348.19
2024-03-26T10:39:48.356Z,98350.64
2024-03-26T10:42:21.384Z,98351.83
2024-03-26T10:44:59.410Z,98347.66
2024-03-26T10:47:38.585Z,98346.13
2024-03-26T10:50:11.608Z,98345.09
2024-03-26T10:52:46.241Z,98339.83
2024-03-26T10:55:18.960Z,98341.65
2024-03-26T10:57:51.205Z,98338.73
2024-03-26T11:00:22.813Z,98336.45
2024-03-26T11:02:58.411Z,98335.03
2024-03-26T11:05:33.702Z,98326.54
2024-03-26T11:08:06.921Z,98330.23
2024-03-26T11:11:01.313Z,98329.52
2024-03-26T11:13:35.089Z,98326.85
2024-03-26T11:16:10.467Z,98330.55
2024-03-26T11:18:45.966Z,98327.26
2024-03-26T11:21:18.828Z,98324.05
2024-03-26T11:23:50.996Z,98326.98
2024-03-26T11:26:27.061Z,98315.39
2024-03-26T11:29:01.686Z,98308.42
2024-03-26T11:31:34.468Z,98306.75
2024-03-26T11:34:08.796Z,98304.52
2024-03-26T11:36:40.653Z,98294.14
2024-03-26T11:39:12.823Z,98288.11
2024-03-26T11:41:46.837Z,98284.41
2024-03-26T11:44:18.392Z,98279.06
2024-03-26T11:46:50.156Z,98270.67
2024-03-26T11:49:22.730Z,98269.05
2024-03-26T11:51:54.285Z,98270.41
2024-03-26T11:54:26.592Z,98265.20
2024-03-26T11:56:58.420Z,98260.80
2024-03-26T11:59:31.006Z,98253.94
2024-03-26T12:02:03.393Z,98252.38
2024-03-26T12:04:34.928Z,98253.06
2024-03-26T12:07:08.844Z,98251.69
2024-03-26T12:09:42.402Z,98250.58
2024-03-26T12:12:17.435Z,98242.46
2024-03-26T12:14:50.359Z,98234.41
2024-03-26T12:17:22.143Z,98232.64
2024-03-26T12:19:53.684Z,98235.79
2024-03-26T12:22:25.332Z,98229.17
2024-03-26T12:24:57.205Z,98221.95
2024-03-26T12:27:28.786Z,98214.98
2024-03-26T12:30:01.413Z,98213.59
2024-03-26T12:32:35.152Z,98210.77
2024-03-26T12:35:07.960Z,98207.46
2024-03-26T12:37:40.715Z,98197.94
2024-03-26T12:40:14.162Z,98195.16
2024-03-26T12:42:46.489Z,98188.00
2024-03-26T12:45:18.303Z,98188.73
2024-03-26T12:47:50.143Z,98187.55
2024-03-26T12:50:22.363Z,98183.45
2024-03-26T12:52:53.903Z,98172.83
2024-03-26T12:55:25.368Z,98171.36
2024-03-26T12:57:56.731Z,98169.29
2024-03-26T13:00:28.275Z,98164.51
2024-03-26T13:02:59.746Z,98160.03
2024-03-26T13:05:31.206Z,98156.09
2024-03-26T13:08:02.625Z,98149.40
2024-03-26T13:10:34.106Z,98149.12
2024-03-26T13:13:05.578Z,98140.48
2024-03-26T13:15:36.990Z,98134.83
2024-03-26T13:18:08.783Z,98136.70
2024-03-26T13:20:41.551Z,98125.41
2024-03-26T13:23:12.857Z,98112.48
2024-03-26T13:25:44.245Z,98112.50
2024-03-26T13:28:15.637Z,98104.27
2024-03-26T13:30:47.486Z,98098.67
2024-03-26T13:33:18.825Z,98094.55
2024-03-26T13:35:50.220Z,98100.02
2024-03-26T13:38:21.606Z,98095.54
2024-03-26T13:40:55.991Z,98091.70
2024-03-26T13:43:31.349Z,98085.15
2024-03-26T13:46:02.717Z,98087.83
2024-03-26T13:48:37.134Z,98077.86
2024-03-26T13:51:10.087Z,98076.02
2024-03-26T13:53:41.925Z,98075.14
2024-03-26T13:56:13.250Z,98076.12
2024-03-26T13:58:44.829Z,98065.73
2024-03-26T14:01:16.595Z,98072.48
2024-03-26T14:03:48.148Z,98068.27
2024-03-26T14:06:19.703Z,98063.51
2024-03-26T14:08:51.313Z,98056.59
2024-03-26T14:11:23.026Z,98062.30
2024-03-26T14:13:54.579Z,98064.70
2024-03-26T14:16:26.543Z,98062.33
2024-03-26T14:18:58.102Z,98055.90
2024-03-26T14:21:29.654Z,98050.46
2024-03-26T14:24:01.211Z,98050.15
2024-03-26T14:26:32.766Z,98045.20
2024-03-26T14:29:05.963Z,98038.70
2024-03-26T14:31:38.129Z,98038.15
2024-03-26T14:34:09.687Z,98034.83
2024-03-26T14:36:41.087Z,98030.68
2024-03-26T14:39:12.429Z,98028.29
2024-03-26T14:41:43.945Z,98024.09
2024-03-26T14:44:18.801Z,98024.25
2024-03-26T14:46:50.333Z,98024.23
2024-03-26T14:49:22.541Z,98025.42
2024-03-26T14:51:54.063Z,98018.56
2024-03-26T14:54:25.617Z,98014.13
2024-03-26T14:56:57.172Z,98016.30
2024-03-26T14:59:29.341Z,98013.07
2024-03-26T15:02:01.305Z,98010.96
2024-03-26T15:04:32.867Z,98012.32
2024-03-26T15:07:08.042Z,98005.85
2024-03-26T15:09:39.461Z,98000.75
2024-03-26T15:12:11.966Z,98000.27
2024-03-26T15:14:43.806Z,97998.75
2024-03-26T15:17:15.354Z,97997.17
2024-03-26T15:19:47.250Z,97994.17
2024-03-26T15:22:18.675Z,97992.90
2024-03-26T15:24:50.227Z,97990.13
2024-03-26T15:27:40.214Z,97987.05
2024-03-26T15:30:32.254Z,97984.48
2024-03-26T15:33:04.227Z,97981.55
2024-03-26T15:35:35.776Z,97982.70
2024-03-26T15:38:07.944Z,97982.36
2024-03-26T15:40:40.154Z,97980.07
2024-03-26T15:43:11.674Z,97978.09
2024-03-26T15:45:46.820Z,97972.63
2024-03-26T15:48:18.265Z,97972.45
2024-03-26T15:50:49.829Z,97964.89
2024-03-26T15:53:21.377Z,97964.15
2024-03-26T15:55:53.082Z,97957.20
2024-03-26T15:58:24.929Z,97955.86
2024-03-26T16:00:56.664Z,97951.89
2024-03-26T16:03:28.269Z,97952.02
2024-03-26T16:06:00.183Z,97951.98
2024-03-26T16:08:31.751Z,97943.23
2024-03-26T16:11:13.145Z,97936.82
2024-03-26T16:13:45.534Z,97927.47
2024-03-26T16:16:17.399Z,97930.33
2024-03-26T16:18:49.232Z,97935.38
2024-03-26T16:21:20.804Z,97928.48
2024-03-26T16:23:52.369Z,97932.20
2024-03-26T16:26:23.902Z,97932.42
2024-03-26T16:28:58.606Z,97929.40
2024-03-26T16:31:30.706Z,97924.43
2024-03-26T16:34:03.903Z,97925.14
2024-03-26T16:36:35.859Z,97920.94
2024-03-26T16:39:08.971Z,97916.91
2024-03-26T16:41:45.145Z,97918.14
2024-03-26T16:44:17.691Z,97913.70
2024-03-26T16:46:50.273Z,97908.36
2024-03-26T16:49:21.829Z,97908.06
2024-03-26T16:51:55.322Z,97908.04
2024-03-26T16:54:26.787Z,97908.81
2024-03-26T16:56:58.343Z,97906.41
2024-03-26T16:59:30.126Z,97903.02
2024-03-26T17:02:01.660Z,97903.97
2024-03-26T17:04:34.036Z,97900.02
2024-03-26T17:07:06.000Z,97897.49
2024-03-26T17:09:37.559Z,97895.17
2024-03-26T17:12:09.886Z,97894.12
2024-03-26T17:14:41.491Z,97890.88
2024-03-26T17:17:14.856Z,97887.88
2024-03-26T17:19:47.273Z,97889.98
2024-03-26T17:22:18.841Z,97886.70
2024-03-26T17:24:50.380Z,97883.64
2024-03-26T17:27:22.142Z,97885.33
2024-03-26T17:29:53.692Z,97884.34
2024-03-26T17:32:25.462Z,97885.98
2024-03-26T17:34:57.418Z,97885.33
2024-03-26T17:37:28.977Z,97888.45
2024-03-26T17:40:00.528Z,97889.63
2024-03-26T17:42:34.274Z,97889.63
2024-03-26T17:45:06.820Z,97886.54
2024-03-26T17:47:39.599Z,97887.20
2024-03-26T17:50:12.294Z,97885.10
2024-03-26T17:52:46.370Z,97888.69
2024-03-26T17:55:18.501Z,97889.30
2024-03-26T17:57:50.034Z,97889.91
2024-03-26T18:00:22.282Z,97892.64
2024-03-26T18:02:53.760Z,97885.45
2024-03-26T18:05:25.514Z,97887.55
2024-03-26T18:07:55.643Z,97887.80
2024-03-26T18:10:27.197Z,97890.26
2024-03-26T18:12:57.317Z,97888.08
2024-03-26T18:15:30.519Z,97885.96
2024-03-26T18:18:02.069Z,97883.23
2024-03-26T18:20:36.900Z,97882.22
2024-03-26T18:23:09.485Z,97881.79
2024-03-26T18:25:41.037Z,97883.95
2024-03-26T18:28:12.594Z,97883.48
2024-03-26T18:30:44.148Z,97883.55
2024-03-26T18:33:15.718Z,97881.64
2024-03-26T18:35:57.469Z,97880.98
2024-03-26T18:38:31.932Z,97880.30
2024-03-26T18:41:07.376Z,97878.91
2024-03-26T18:43:41.599Z,97875.64
2024-03-26T18:46:14.398Z,97877.99
2024-03-26T18:48:47.368Z,97877.73
2024-03-26T18:51:18.971Z,97878.29
2024-03-26T18:53:50.480Z,97878.96
2024-03-26T18:56:20.610Z,97883.74
2024-03-26T18:58:52.363Z,97878.11
2024-03-26T19:01:26.118Z,97881.77
2024-03-26T19:03:57.728Z,97878.39
2024-03-26T19:06:29.404Z,97880.86
2024-03-26T19:09:02.319Z,97876.73
2024-03-26T19:11:35.167Z,97876.98
2024-03-26T19:14:06.612Z,97880.69
2024-03-26T19:16:38.373Z,97881.58
2024-03-26T19:19:10.019Z,97877.69
2024-03-26T19:21:41.495Z,97875.52
2024-03-26T19:24:13.246Z,97874.39
2024-03-26T19:26:44.803Z,97876.39
2024-03-26T19:29:16.568Z,97875.92
2024-03-26T19:31:48.736Z,97874.23
2024-03-26T19:34:19.985Z,97872.20
2024-03-26T19:36:56.574Z,97869.97
2024-03-26T19:39:28.126Z,97868.84
2024-03-26T19:41:59.672Z,97867.10
2024-03-26T19:44:30.404Z,97868.16
2024-03-26T19:47:01.969Z,97868.52
2024-03-26T19:49:33.525Z,97864.15
2024-03-26T19:52:05.625Z,97861.44
2024-03-26T19:54:37.867Z,97861.14
2024-03-26T19:57:09.413Z,97861.30
2024-03-26T19:59:39.545Z,97855.20
2024-03-26T20:02:11.295Z,97853.63
2024-03-26T20:04:42.854Z,97855.38
2024-03-26T20:07:18.306Z,97853.64
2024-03-26T20:09:50.687Z,97855.38
2024-03-26T20:12:22.682Z,97853.05
2024-03-26T20:14:54.818Z,97849.70
2024-03-26T20:17:26.996Z,97852.84
2024-03-26T20:19:58.541Z,97852.15
2024-03-26T20:22:30.502Z,97846.23
2024-03-26T20:25:02.815Z,97844.79
2024-03-26T20:27:34.434Z,97842.02
2024-03-26T20:30:10.289Z,97840.13
2024-03-26T20:32:41.851Z,97839.08
2024-03-26T20:35:12.595Z,97834.59
2024-03-26T20:37:46.014Z,97838.16
2024-03-26T20:40:17.691Z,97837.81
2024-03-26T20:42:49.300Z,97832.75
2024-03-26T20:45:20.875Z,97831.63
2024-03-26T20:47:52.410Z,97828.15
2024-03-26T20:50:22.327Z,97826.97
2024-03-26T20:52:53.897Z,97825.36
2024-03-26T20:55:25.441Z,97822.70
2024-03-26T20:57:55.565Z,97824.61
2024-03-26T21:00:27.134Z,97825.20
2024-03-26T21:02:57.791Z,97821.68
2024-03-26T21:05:29.413Z,97818.48
2024-03-26T21:08:00.968Z,97819.83
2024-03-26T21:10:33.164Z,97814.99
2024-03-26T21:13:05.242Z,97810.36
2024-03-26T21:15:36.870Z,97812.98
2024-03-26T21:18:14.154Z,97813.33
2024-03-26T21:20:51.039Z,97811.76
2024-03-26T21:23:22.794Z,97808.15
2024-03-26T21:25:54.354Z,97811.20
2024-03-26T21:28:25.908Z,97804.67
2024-03-26T21:31:01.496Z,97807.45
2024-03-26T21:33:33.116Z,97805.71
2024-03-26T21:36:04.389Z,97804.32
2024-03-26T21:38:36.226Z,97802.27
2024-03-26T21:41:08.461Z,97798.33
2024-03-26T21:43:40.988Z,97794.75
2024-03-26T21:46:12.536Z,97790.64
2024-03-26T21:48:44.088Z,97789.13
2024-03-26T21:51:19.370Z,97789.64
2024-03-26T21:53:51.706Z,97789.55
2024-03-26T21:56:23.884Z,97784.80
2024-03-26T21:58:55.635Z,97785.18
2024-03-26T22:01:25.555Z,97779.45
2024-03-26T22:03:57.116Z,97776.21
2024-03-26T22:06:27.434Z,97780.80
2024-03-26T22:08:57.559Z,97780.11
2024-03-26T22:11:29.124Z,97778.05
2024-03-26T22:13:59.239Z,97776.59
2024-03-26T22:16:30.797Z,97778.70
2024-03-26T22:19:01.328Z,97776.02
2024-03-26T22:21:32.882Z,97773.15
2024-03-26T22:24:03.966Z,97771.05
2024-03-26T22:26:35.715Z,97768.05
2024-03-26T22:29:07.348Z,97763.91
2024-03-26T22:31:37.264Z,97763.73
2024-03-26T22:34:09.434Z,97762.96
2024-03-26T22:36:41.194Z,97761.86
2024-03-26T22:39:11.728Z,97759.48
2024-03-26T22:41:43.283Z,97758.75
2024-03-26T22:44:13.200Z,97756.44
2024-03-26T22:46:44.758Z,97760.84
2024-03-26T22:49:14.671Z,97760.09
2024-03-26T22:51:46.229Z,97758.71
2024-03-26T22:54:18.001Z,97758.45
2024-03-26T22:56:52.519Z,97755.14
2024-03-26T22:59:26.437Z,97757.14
2024-03-26T23:01:58.186Z,97754.78
2024-03-26T23:04:30.158Z,97754.98
2024-03-26T23:07:01.713Z,97750.40
2024-03-26T23:09:31.835Z,97748.45
2024-03-26T23:12:03.388Z,97749.17
2024-03-26T23:14:34.943Z,97744.40
2024-03-26T23:17:04.856Z,97743.98
2024-03-26T23:19:36.153Z,97734.55
2024-03-26T23:22:08.223Z,97732.95
2024-03-26T23:24:39.736Z,97732.98
2024-03-26T23:27:11.293Z,97732.77
2024-03-26T23:29:42.846Z,97731.38
2024-03-26T23:32:15.024Z,97727.20
2024-03-26T23:34:46.575Z,97724.98
2024-03-26T23:37:18.131Z,97715.02
2024-03-26T23:39:48.661Z,97708.05
2024-03-26T23:42:18.481Z,97709.65
2024-03-26T23:44:49.938Z,97705.40
2024-03-26T23:47:22.103Z,97705.83
2024-03-26T23:49:54.275Z,97705.71
2024-03-26T23:52:25.837Z,97702.29
2024-03-26T23:54:57.795Z,97705.54
2024-03-26T23:57:29.577Z,97703.95
